createdAt,value
2022-10-16T00:13:29.442Z,14.32
2022-10-16T00:16:04.030Z,14.20
2022-10-16T00:19:17.191Z,14.05
2022-10-16T00:22:17.170Z,13.93
2022-10-16T00:28:44.431Z,13.99
2022-10-16T00:31:58.705Z,14.04
2022-10-16T00:41:30.139Z,13.97
2022-10-16T00:54:02.449Z,14.14
2022-10-16T01:00:19.202Z,14.07
2022-10-16T01:06:41.204Z,14.14
2022-10-16T01:09:50.911Z,14.14
2022-10-16T01:16:38.089Z,14.22
2022-10-16T01:22:56.133Z,14.09
2022-10-16T01:25:40.173Z,13.96
2022-10-16T01:28:15.924Z,13.85
2022-10-16T01:31:18.305Z,13.78
2022-10-16T01:44:23.075Z,13.19
2022-10-16T01:50:40.973Z,13.19
2022-10-16T01:53:54.612Z,13.22
2022-10-16T02:03:39.343Z,13.37
2022-10-16T02:23:18.400Z,13.44
2022-10-16T02:26:18.508Z,13.44
2022-10-16T02:32:22.642Z,13.52
2022-10-16T02:35:09.527Z,13.58
2022-10-16T02:41:39.408Z,13.68
2022-10-16T02:48:20.326Z,13.63
2022-10-16T02:51:20.553Z,13.48
2022-10-16T02:54:06.595Z,13.41
2022-10-16T02:59:53.570Z,13.27
2022-10-16T03:05:40.314Z,13.15
2022-10-16T03:11:40.457Z,13.20
2022-10-16T03:24:23.858Z,12.94
2022-10-16T03:36:53.831Z,13.25
2022-10-16T03:39:53.867Z,13.31
2022-10-16T03:45:41.124Z,13.36
2022-10-16T03:48:28.135Z,13.37
2022-10-16T03:54:55.867Z,13.42
2022-10-16T04:13:30.490Z,13.46
2022-10-16T04:18:52.733Z,13.23
2022-10-16T04:25:07.545Z,12.79
2022-10-16T04:31:48.494Z,12.78
2022-10-16T04:37:43.221Z,12.79
2022-10-16T04:40:29.779Z,12.73
2022-10-16T04:46:57.522Z,12.73
2022-10-16T04:54:02.204Z,12.52
2022-10-16T04:57:15.694Z,12.43
2022-10-16T05:00:15.359Z,12.32
2022-10-16T05:16:43.644Z,12.38
2022-10-16T05:19:57.484Z,12.37
2022-10-16T05:29:11.299Z,12.35
2022-10-16T05:35:39.478Z,12.39
2022-10-16T05:41:39.420Z,12.41
2022-10-16T05:47:56.462Z,12.65
2022-10-16T06:04:05.563Z,14.02
2022-10-16T06:07:05.861Z,14.47
2022-10-16T06:10:07.607Z,14.84
2022-10-16T06:13:07.404Z,15.17
2022-10-16T06:19:34.479Z,16.12
2022-10-16T06:23:01.716Z,16.41
2022-10-16T06:25:34.338Z,16.76
2022-10-16T06:28:35.279Z,16.99
2022-10-16T06:35:03.984Z,17.75
2022-10-16T06:38:04.009Z,18.19
2022-10-16T06:53:39.478Z,20.22
2022-10-16T06:57:07.431Z,20.65
2022-10-16T07:03:08.905Z,21.50
2022-10-16T07:05:55.003Z,21.73
2022-10-16T07:15:50.170Z,22.50
2022-10-16T07:22:18.666Z,23.12
2022-10-16T07:25:18.701Z,23.16
2022-10-16T07:28:04.795Z,22.81
2022-10-16T07:30:51.399Z,22.66
2022-10-16T07:34:18.562Z,22.78
2022-10-16T07:40:59.677Z,22.79
2022-10-16T07:44:12.698Z,22.97
2022-10-16T07:47:26.257Z,22.87
2022-10-16T07:50:27.156Z,22.72
2022-10-16T07:56:28.009Z,22.82
2022-10-16T07:59:41.099Z,22.86
2022-10-16T08:05:55.660Z,23.17
2022-10-16T08:09:23.029Z,23.36
2022-10-16T08:28:48.074Z,24.86
2022-10-16T08:35:03.106Z,24.98
2022-10-16T08:38:03.097Z,25.13
2022-10-16T08:41:29.914Z,25.03
2022-10-16T08:44:33.741Z,24.92
2022-10-16T08:48:00.938Z,24.79
2022-10-16T08:51:28.042Z,24.56
2022-10-16T08:54:41.055Z,24.06
2022-10-16T08:57:30.488Z,23.88
2022-10-16T09:00:43.892Z,23.76
2022-10-16T09:07:06.989Z,23.74
2022-10-16T09:13:30.254Z,24.12
2022-10-16T09:16:35.092Z,24.40
2022-10-16T09:25:37.613Z,24.48
2022-10-16T09:28:58.432Z,24.90
2022-10-16T09:31:48.477Z,24.99
2022-10-16T09:34:42.185Z,25.04
2022-10-16T09:37:52.872Z,25.03
2022-10-16T09:40:44.786Z,25.26
2022-10-16T09:43:28.827Z,25.12
2022-10-16T09:46:28.040Z,25.25
2022-10-16T09:49:02.203Z,25.66
2022-10-16T09:54:26.830Z,25.94
2022-10-16T10:01:03.725Z,26.01
2022-10-16T10:10:01.898Z,26.24
2022-10-16T10:12:53.327Z,26.07
2022-10-16T10:15:27.885Z,26.03
2022-10-16T10:19:01.776Z,25.98
2022-10-16T10:21:52.519Z,26.06
2022-10-16T10:24:25.348Z,26.12
2022-10-16T10:27:20.962Z,26.10
2022-10-16T10:33:34.128Z,26.59
2022-10-16T10:36:41.261Z,26.15
2022-10-16T10:39:53.940Z,26.19
2022-10-16T10:42:49.147Z,26.35
2022-10-16T10:45:55.414Z,26.83
2022-10-16T10:48:57.291Z,26.94
2022-10-16T10:52:13.326Z,26.30
2022-10-16T10:55:22.824Z,26.21
2022-10-16T10:59:01.249Z,26.02
2022-10-16T11:09:20.086Z,26.73
2022-10-16T11:11:57.051Z,27.02
2022-10-16T11:14:49.487Z,27.38
2022-10-16T11:17:44.608Z,27.11
2022-10-16T11:20:54.555Z,27.40
2022-10-16T11:26:57.755Z,26.72
2022-10-16T11:29:51.475Z,26.78
2022-10-16T11:33:03.198Z,27.23
2022-10-16T11:39:11.027Z,27.36
2022-10-16T11:45:42.759Z,27.03
2022-10-16T11:48:25.789Z,26.90
2022-10-16T11:51:23.205Z,26.94
2022-10-16T11:54:35.048Z,27.26
2022-10-16T11:57:16.533Z,26.95
2022-10-16T11:59:54.432Z,26.20
2022-10-16T12:03:07.950Z,25.81
2022-10-16T12:06:04.404Z,25.93
2022-10-16T12:08:37.617Z,25.99
2022-10-16T12:11:37.330Z,25.65
2022-10-16T12:14:23.127Z,25.57
2022-10-16T12:17:37.569Z,25.57
2022-10-16T12:20:47.181Z,25.45
2022-10-16T12:23:27.439Z,25.72
2022-10-16T12:29:43.403Z,25.18
2022-10-16T12:32:51.906Z,24.96
2022-10-16T12:35:27.703Z,24.76
2022-10-16T12:38:43.438Z,24.47
2022-10-16T12:41:15.785Z,24.18
2022-10-16T12:54:18.151Z,23.51
2022-10-16T12:57:12.949Z,23.40
2022-10-16T13:03:43.919Z,23.10
2022-10-16T13:07:05.249Z,22.83
2022-10-16T13:10:18.061Z,22.75
2022-10-16T13:17:03.624Z,22.54
2022-10-16T13:19:46.526Z,22.46
2022-10-16T13:22:25.288Z,22.56
2022-10-16T13:25:10.178Z,22.71
2022-10-16T13:27:52.740Z,22.95
2022-10-16T13:30:30.955Z,23.15
2022-10-16T13:33:07.515Z,23.27
2022-10-16T13:35:39.795Z,23.53
2022-10-16T13:38:18.373Z,23.60
2022-10-16T13:40:55.829Z,23.97
2022-10-16T13:43:34.912Z,24.03
2022-10-16T13:46:08.558Z,24.30
2022-10-16T13:48:40.545Z,24.64
2022-10-16T13:51:18.526Z,24.77
2022-10-16T13:53:50.985Z,24.77
2022-10-16T13:57:27.239Z,24.40
2022-10-16T14:03:38.743Z,24.77
2022-10-16T14:06:18.887Z,24.63
2022-10-16T14:08:57.928Z,24.60
2022-10-16T14:11:31.109Z,24.55
2022-10-16T14:14:04.259Z,24.57
2022-10-16T14:16:36.981Z,24.59
2022-10-16T14:19:17.612Z,24.44
2022-10-16T14:21:50.888Z,24.30
2022-10-16T14:24:34.433Z,24.20
2022-10-16T14:27:33.228Z,24.07
2022-10-16T14:30:20.770Z,24.04
2022-10-16T14:33:04.813Z,24.07
2022-10-16T14:35:40.010Z,24.15
2022-10-16T14:38:22.896Z,24.27
2022-10-16T14:40:55.734Z,24.24
2022-10-16T14:43:35.163Z,24.23
2022-10-16T14:46:15.097Z,24.25
2022-10-16T14:48:50.249Z,24.42
2022-10-16T14:51:24.467Z,24.35
2022-10-16T14:54:00.132Z,24.38
2022-10-16T14:56:37.044Z,24.55
2022-10-16T14:59:14.463Z,24.69
2022-10-16T15:01:49.183Z,24.69
2022-10-16T15:04:22.238Z,24.60
2022-10-16T15:06:54.826Z,24.60
2022-10-16T15:09:27.654Z,24.50
2022-10-16T15:12:02.058Z,24.46
2022-10-16T15:14:35.762Z,24.45
2022-10-16T15:17:10.803Z,24.37
2022-10-16T15:19:43.587Z,24.30
2022-10-16T15:22:16.493Z,24.26
2022-10-16T15:24:49.171Z,24.19
2022-10-16T15:27:21.842Z,24.09
2022-10-16T15:29:55.409Z,23.91
2022-10-16T15:35:10.457Z,23.74
2022-10-16T15:37:42.832Z,23.50
2022-10-16T15:40:15.919Z,23.27
2022-10-16T15:42:49.066Z,23.08
2022-10-16T15:45:22.592Z,22.98
2022-10-16T15:47:55.206Z,22.87
2022-10-16T15:50:27.954Z,22.80
2022-10-16T15:53:00.435Z,22.71
2022-10-16T15:55:33.037Z,22.55
2022-10-16T15:58:05.564Z,22.37
2022-10-16T16:00:38.948Z,22.26
2022-10-16T16:03:12.679Z,22.09
2022-10-16T16:05:46.749Z,21.97
2022-10-16T16:08:19.548Z,21.83
2022-10-16T16:11:01.443Z,21.70
2022-10-16T16:13:34.896Z,21.61
2022-10-16T16:16:10.298Z,21.53
2022-10-16T16:18:43.736Z,21.42
2022-10-16T16:21:16.639Z,21.33
2022-10-16T16:23:49.134Z,21.24
2022-10-16T16:26:28.475Z,21.21
2022-10-16T16:29:01.472Z,21.19
2022-10-16T16:31:35.962Z,21.12
2022-10-16T16:34:08.772Z,21.10
2022-10-16T16:36:41.885Z,21.07
2022-10-16T16:39:15.385Z,21.03
2022-10-16T16:41:48.394Z,20.99
2022-10-16T16:44:21.791Z,20.94
2022-10-16T16:46:55.970Z,20.89
2022-10-16T16:49:28.796Z,20.83
2022-10-16T16:52:02.761Z,20.76
2022-10-16T16:54:35.704Z,20.66
2022-10-16T16:57:08.577Z,20.57
2022-10-16T16:59:41.256Z,20.49
2022-10-16T17:02:14.383Z,20.39
2022-10-16T17:04:47.683Z,20.28
2022-10-16T17:07:24.106Z,20.22
2022-10-16T17:09:57.915Z,20.20
2022-10-16T17:12:30.836Z,20.18
2022-10-16T17:15:07.226Z,20.17
2022-10-16T17:17:39.856Z,20.17
2022-10-16T17:20:13.548Z,20.17
2022-10-16T17:22:46.081Z,20.19
2022-10-16T17:25:19.648Z,20.17
2022-10-16T17:27:52.293Z,20.12
2022-10-16T17:30:26.998Z,20.01
2022-10-16T17:32:58.197Z,19.92
2022-10-16T17:35:30.830Z,19.83
2022-10-16T17:38:03.424Z,19.75
2022-10-16T17:40:36.447Z,19.69
2022-10-16T17:43:09.637Z,19.59
2022-10-16T17:45:42.115Z,19.50
2022-10-16T17:48:14.726Z,19.45
2022-10-16T17:50:47.461Z,19.40
2022-10-16T17:53:19.978Z,19.32
2022-10-16T17:55:59.390Z,19.22
2022-10-16T17:58:32.486Z,19.14
2022-10-16T18:01:13.178Z,19.09
2022-10-16T18:03:46.017Z,18.99
2022-10-16T18:06:22.718Z,18.89
2022-10-16T18:08:58.259Z,18.81
2022-10-16T18:11:31.416Z,18.71
2022-10-16T18:14:04.905Z,18.60
2022-10-16T18:16:39.746Z,18.48
2022-10-16T18:19:12.840Z,18.39
2022-10-16T18:21:46.174Z,18.28
2022-10-16T18:24:18.963Z,18.22
2022-10-16T18:26:56.517Z,18.17
2022-10-16T18:29:29.906Z,18.08
2022-10-16T18:32:02.854Z,17.96
2022-10-16T18:34:37.809Z,17.85
2022-10-16T18:37:08.728Z,17.74
2022-10-16T18:39:42.104Z,17.60
2022-10-16T18:42:14.626Z,17.51
2022-10-16T18:44:51.868Z,17.40
2022-10-16T18:47:26.323Z,17.28
2022-10-16T18:49:59.228Z,17.15
2022-10-16T18:52:32.494Z,17.09
2022-10-16T18:55:06.483Z,17.03
2022-10-16T18:57:39.518Z,17.02
2022-10-16T19:00:14.214Z,16.97
2022-10-16T19:02:46.705Z,16.92
2022-10-16T19:05:19.468Z,16.90
2022-10-16T19:07:53.005Z,16.82
2022-10-16T19:10:26.067Z,16.75
2022-10-16T19:13:00.227Z,16.71
2022-10-16T19:15:33.301Z,16.64
2022-10-16T19:18:06.390Z,16.59
2022-10-16T19:20:39.242Z,16.59
2022-10-16T19:23:12.174Z,16.60
2022-10-16T19:25:44.910Z,16.57
2022-10-16T19:28:17.760Z,16.49
2022-10-16T19:30:51.346Z,16.47
2022-10-16T19:33:24.476Z,16.47
2022-10-16T19:36:08.186Z,16.49
2022-10-16T19:38:42.193Z,16.47
2022-10-16T19:41:17.330Z,16.42
2022-10-16T19:43:48.813Z,16.38
2022-10-16T19:46:24.722Z,16.36
2022-10-16T19:49:00.938Z,16.42
2022-10-16T19:51:34.520Z,16.43
2022-10-16T19:54:41.901Z,16.38
2022-10-16T19:57:18.225Z,16.27
2022-10-16T20:00:10.604Z,16.21
2022-10-16T20:06:28.568Z,16.03
2022-10-16T20:12:46.549Z,16.00
2022-10-16T20:22:23.051Z,15.97
2022-10-16T20:25:10.260Z,15.91
2022-10-16T20:38:26.553Z,15.93
2022-10-16T20:51:00.247Z,15.90
2022-10-16T20:57:28.500Z,15.89
2022-10-16T21:14:46.353Z,15.36
2022-10-16T21:21:38.080Z,15.16
2022-10-16T21:24:13.691Z,15.20
2022-10-16T21:27:16.814Z,15.30
2022-10-16T21:30:16.457Z,15.41
2022-10-16T21:33:16.373Z,15.51
2022-10-16T21:39:44.604Z,15.58
2022-10-16T21:42:57.915Z,15.59
2022-10-16T21:46:34.204Z,15.61
2022-10-16T21:52:38.209Z,15.59
2022-10-16T21:55:25.261Z,15.54
2022-10-16T22:04:01.414Z,15.48
2022-10-16T22:09:48.702Z,15.31
2022-10-16T22:21:54.951Z,15.36
2022-10-16T22:51:35.072Z,15.21
2022-10-16T22:56:54.295Z,15.16
2022-10-16T23:03:08.805Z,15.13
2022-10-16T23:09:51.310Z,15.08
2022-10-16T23:12:37.737Z,15.11
2022-10-16T23:21:30.880Z,15.17
2022-10-16T23:24:44.016Z,15.17
2022-10-16T23:34:29.958Z,15.18
2022-10-16T23:40:43.364Z,15.13
2022-10-16T23:43:43.851Z,15.09
2022-10-16T23:46:31.823Z,15.05
2022-10-16T23:52:33.556Z,14.94
2022-10-16T23:59:00.247Z,14.86
